Time;durP1;ratioP1;P1;durP2;ratioP2;P2;SDS_P1;SDS_P2;PMS_P1;PMS_P2;Temp;Humidity;BMP_temperature;BMP_pressure;BME280_temperature;BME280_humidity;BME280_pressure;Samples;Min_cycle;Max_cycle;Signal;HPM_P1;HPM_P2
2023/02/06 00:01:07;;;;;;;16.25;3.78;;;;;;;7.54;100.00;100629.13;2104372;28;20036;-84
2023/02/06 00:02:30;;;;;;;14.68;3.20;;;;;;;7.44;100.00;100622.72;2095486;28;20566;-81
2023/02/06 00:03:51;;;;;;;19.52;6.90;;;;;;;7.13;100.00;100634.19;2109698;28;20055;-80
2023/02/06 00:05:13;;;;;;;15.35;5.65;;;;;;;6.76;100.00;100634.88;2098107;28;20455;-77
2023/02/06 00:06:35;;;;;;;17.13;3.75;;;;;;;6.49;100.00;100631.47;2092488;28;20059;-78
2023/02/06 00:07:57;;;;;;;6.60;2.10;;;;;;;6.53;100.00;100629.81;2103474;28;20135;-78
2023/02/06 00:09:19;;;;;;;11.48;2.65;;;;;;;6.63;100.00;100642.38;2111880;28;20032;-79
2023/02/06 00:10:41;;;;;;;8.57;2.50;;;;;;;6.73;100.00;100633.91;2106225;28;20090;-79
2023/02/06 00:12:04;;;;;;;9.65;2.47;;;;;;;6.71;100.00;100651.31;2095143;28;20041;-79
2023/02/06 00:13:26;;;;;;;12.65;2.97;;;;;;;6.73;100.00;100647.00;2087166;28;20049;-79
2023/02/06 00:14:49;;;;;;;14.23;3.78;;;;;;;6.76;100.00;100645.34;2084334;28;20072;-79
2023/02/06 00:16:19;;;;;;;14.13;4.03;;;;;;;6.82;100.00;100642.06;2092596;28;20581;-80
2023/02/06 00:17:40;;;;;;;14.88;3.60;;;;;;;6.81;100.00;100645.50;2096129;28;20037;-78
2023/02/06 00:19:03;;;;;;;12.98;3.53;;;;;;;6.80;100.00;100639.38;2101413;28;20072;-80
2023/02/06 00:20:26;;;;;;;16.83;2.90;;;;;;;6.80;100.00;100652.50;2097967;28;20037;-78
2023/02/06 00:21:48;;;;;;;13.68;3.95;;;;;;;6.86;100.00;100672.75;2089633;28;20053;-79
2023/02/06 00:23:10;;;;;;;19.02;3.78;;;;;;;6.74;100.00;100656.66;2091920;28;20101;-77
2023/02/06 00:24:33;;;;;;;12.18;3.15;;;;;;;6.40;100.00;100681.00;2086862;28;20061;-77
2023/02/06 00:25:54;;;;;;;12.63;4.43;;;;;;;6.28;100.00;100689.38;2100695;28;20427;-78
2023/02/06 00:27:16;;;;;;;14.20;4.65;;;;;;;6.36;100.00;100664.28;2096651;28;20045;-77
2023/02/06 00:28:41;;;;;;;15.13;3.83;;;;;;;6.27;100.00;100684.97;2089251;28;20049;-77
2023/02/06 00:30:04;;;;;;;9.95;3.22;;;;;;;6.11;100.00;100673.94;2086922;28;20091;-77
2023/02/06 00:31:26;;;;;;;11.55;3.10;;;;;;;5.97;100.00;100678.75;2092573;28;20032;-78
2023/02/06 00:32:48;;;;;;;10.07;4.00;;;;;;;6.11;100.00;100673.94;2086712;28;20500;-78
2023/02/06 00:34:11;;;;;;;13.70;4.22;;;;;;;6.29;100.00;100677.16;2092795;28;20044;-78
2023/02/06 00:35:34;;;;;;;18.60;5.90;;;;;;;6.46;100.00;100690.78;2086547;28;20112;-78
2023/02/06 00:36:56;;;;;;;10.45;3.40;;;;;;;6.57;100.00;100685.00;2083771;28;20049;-79
2023/02/06 00:38:17;;;;;;;12.38;4.07;;;;;;;6.67;100.00;100679.22;2100848;28;20060;-79
2023/02/06 00:39:40;;;;;;;14.07;3.40;;;;;;;6.71;100.00;100693.28;2089420;28;20100;-78
2023/02/06 00:41:02;;;;;;;12.57;3.65;;;;;;;6.74;100.00;100693.41;2091757;28;20045;-78
2023/02/06 00:42:24;;;;;;;10.63;4.28;;;;;;;6.67;100.00;100694.94;2094789;28;20083;-78
2023/02/06 00:43:48;;;;;;;14.18;4.03;;;;;;;6.59;100.00;100691.19;2097043;28;20080;-77
2023/02/06 00:45:10;;;;;;;10.70;4.13;;;;;;;6.55;100.00;100706.78;2086705;28;20048;-77
2023/02/06 00:46:32;;;;;;;12.98;3.88;;;;;;;6.44;100.00;100698.56;2092548;28;20075;-77
2023/02/06 00:47:54;;;;;;;6.78;2.85;;;;;;;6.12;100.00;100696.69;2089121;28;20045;-78
2023/02/06 00:49:16;;;;;;;14.20;4.00;;;;;;;6.07;100.00;100680.81;2084073;28;20045;-79
2023/02/06 00:50:39;;;;;;;16.02;4.05;;;;;;;6.04;100.00;100691.19;2092757;28;20052;-79
2023/02/06 00:52:01;;;;;;;11.98;3.90;;;;;;;6.08;100.00;100707.91;2095038;28;20063;-81
2023/02/06 00:53:23;;;;;;;11.10;3.28;;;;;;;6.20;100.00;100706.56;2087401;28;20099;-82
2023/02/06 00:54:46;;;;;;;12.82;4.10;;;;;;;6.35;100.00;100688.72;2101446;28;20060;-80
2023/02/06 00:56:08;;;;;;;17.33;4.15;;;;;;;6.51;100.00;100699.66;2089322;28;20181;-80
2023/02/06 00:57:29;;;;;;;16.60;4.28;;;;;;;6.59;100.00;100693.81;2092559;28;20451;-81
2023/02/06 00:58:53;;;;;;;17.42;5.40;;;;;;;6.67;100.00;100689.69;2103467;28;20058;-81
2023/02/06 01:00:15;;;;;;;18.40;4.22;;;;;;;6.74;100.00;100691.66;2097731;28;20056;-81
2023/02/06 01:01:37;;;;;;;16.40;2.78;;;;;;;6.79;100.00;100699.66;2086754;28;20167;-82
2023/02/06 01:03:00;;;;;;;11.85;2.40;;;;;;;6.80;100.00;100673.47;2082702;28;20563;-82
2023/02/06 01:04:22;;;;;;;12.85;2.53;;;;;;;6.74;100.00;100710.03;2092535;28;20059;-82
2023/02/06 01:05:44;;;;;;;16.35;2.55;;;;;;;6.71;100.00;100709.03;2103624;28;20051;-82
2023/02/06 01:07:05;;;;;;;14.85;2.70;;;;;;;6.71;100.00;100698.53;2089338;28;20044;-81
2023/02/06 01:08:28;;;;;;;11.27;2.80;;;;;;;6.76;100.00;100707.44;2092156;28;20068;-81
2023/02/06 01:09:49;;;;;;;10.23;2.80;;;;;;;6.79;100.00;100711.03;2089679;28;20056;-79
2023/02/06 01:11:13;;;;;;;9.57;2.47;;;;;;;6.81;100.00;100724.22;2092055;28;20064;-79
2023/02/06 01:12:35;;;;;;;11.93;2.25;;;;;;;6.80;100.00;100712.81;2094660;28;20040;-79
2023/02/06 01:14:00;;;;;;;9.05;1.98;;;;;;;6.83;100.00;100696.25;2095354;28;20056;-80
2023/02/06 01:15:22;;;;;;;11.93;2.75;;;;;;;6.83;100.00;100698.88;2086907;28;20043;-80
2023/02/06 01:16:44;;;;;;;10.55;2.10;;;;;;;6.81;100.00;100705.84;2091990;28;20428;-79
2023/02/06 01:18:05;;;;;;;8.82;2.28;;;;;;;6.80;100.00;100718.06;2091735;28;20070;-79
2023/02/06 01:19:28;;;;;;;10.38;2.17;;;;;;;6.80;100.00;100711.94;2088525;28;20095;-81
2023/02/06 01:20:49;;;;;;;14.32;3.10;;;;;;;6.78;100.00;100722.38;2086790;28;20051;-81
2023/02/06 01:22:11;;;;;;;8.63;2.10;;;;;;;6.78;100.00;100711.00;2092108;28;20550;-80
2023/02/06 01:23:32;;;;;;;15.50;2.70;;;;;;;6.78;100.00;100724.09;2094992;28;20389;-81
2023/02/06 01:24:55;;;;;;;11.35;2.28;;;;;;;6.74;100.00;100702.16;2095188;28;20044;-81
2023/02/06 01:26:19;;;;;;;9.85;2.30;;;;;;;6.73;100.00;100715.22;2095069;28;20045;-80
2023/02/06 01:27:41;;;;;;;10.38;2.00;;;;;;;6.72;100.00;100711.69;2103611;28;20056;-82
2023/02/06 01:29:05;;;;;;;11.85;1.70;;;;;;;6.70;100.00;100712.47;2089564;28;20536;-82
2023/02/06 01:30:26;;;;;;;10.73;2.53;;;;;;;6.72;100.00;100722.19;2095353;28;20519;-83
2023/02/06 01:31:48;;;;;;;8.60;1.98;;;;;;;6.73;100.00;100726.59;2094715;28;20450;-84
2023/02/06 01:33:11;;;;;;;11.77;1.63;;;;;;;6.75;100.00;100724.91;2087077;28;20107;-84
2023/02/06 01:34:33;;;;;;;15.52;3.65;;;;;;;6.78;100.00;100725.00;2087080;28;20057;-84
2023/02/06 01:35:55;;;;;;;9.93;2.80;;;;;;;6.83;100.00;100726.88;2095279;28;20044;-84
2023/02/06 01:37:18;;;;;;;14.43;2.88;;;;;;;6.82;100.00;100718.13;2094650;28;20041;-85
2023/02/06 01:38:41;;;;;;;17.10;3.33;;;;;;;6.81;100.00;100726.84;2099470;28;20078;-86
2023/02/06 01:40:04;;;;;;;9.65;2.88;;;;;;;6.82;100.00;100736.50;2100287;28;20044;-82
2023/02/06 01:41:25;;;;;;;16.58;3.80;;;;;;;6.84;100.00;100742.66;2095383;28;20096;-82
2023/02/06 01:42:48;;;;;;;11.10;3.00;;;;;;;6.85;100.00;100733.94;2094857;28;20048;-81
2023/02/06 01:44:15;;;;;;;12.57;2.55;;;;;;;6.88;100.00;100749.78;2095079;28;20141;-82
2023/02/06 01:45:41;;;;;;;10.45;2.58;;;;;;;6.90;100.00;100749.81;2097465;28;20049;-82
2023/02/06 01:47:04;;;;;;;9.45;2.40;;;;;;;6.89;100.00;100745.44;2089143;28;20048;-81
2023/02/06 01:48:32;;;;;;;9.02;2.40;;;;;;;6.90;100.00;100747.19;2091669;28;20086;-81
2023/02/06 01:49:55;;;;;;;13.18;2.85;;;;;;;6.89;100.00;100743.69;2095144;28;20049;-83
2023/02/06 01:51:19;;;;;;;11.00;3.75;;;;;;;6.93;100.00;100742.03;2094646;28;20073;-83
2023/02/06 01:52:42;;;;;;;13.55;2.83;;;;;;;6.91;100.00;100739.38;2103079;28;20083;-84
2023/02/06 01:54:07;;;;;;;10.65;2.70;;;;;;;6.95;100.00;100750.84;2088541;28;20048;-85
2023/02/06 01:55:29;;;;;;;17.40;2.88;;;;;;;6.95;100.00;100736.00;2092380;28;20805;-86
2023/02/06 01:57:00;;;;;;;10.70;2.70;;;;;;;6.97;100.00;100743.91;2095313;28;20056;-86
2023/02/06 01:58:29;;;;;;;9.00;3.20;;;;;;;6.97;100.00;100749.16;2088343;28;20051;-85
2023/02/06 01:59:59;;;;;;;11.07;2.28;;;;;;;6.98;100.00;100741.34;2093285;28;20049;-87
2023/02/06 02:01:21;;;;;;;9.25;1.90;;;;;;;6.98;100.00;100738.72;2101954;28;20121;-85
2023/02/06 02:02:48;;;;;;;10.68;2.72;;;;;;;7.00;100.00;100737.03;2088991;28;20068;-85
2023/02/06 02:04:14;;;;;;;11.07;2.55;;;;;;;7.01;100.00;100736.19;2093545;28;20044;-84
2023/02/06 02:05:40;;;;;;;10.43;2.42;;;;;;;7.02;100.00;100737.06;2095160;28;20427;-85
2023/02/06 02:07:08;;;;;;;7.35;1.75;;;;;;;7.03;100.00;100754.56;2095408;28;20122;-84
2023/02/06 02:08:35;;;;;;;10.27;2.25;;;;;;;7.02;100.00;100752.81;2087415;28;20049;-85
2023/02/06 02:09:57;;;;;;;6.03;1.30;;;;;;;6.99;100.00;100758.84;2093677;28;20377;-85
2023/02/06 02:11:28;;;;;;;4.93;1.42;;;;;;;6.95;100.00;100745.63;2078618;28;20525;-86
2023/02/06 02:12:49;;;;;;;6.93;1.73;;;;;;;6.92;100.00;100756.00;2077320;28;20050;-86
2023/02/06 02:14:14;;;;;;;12.55;2.65;;;;;;;6.93;100.00;100749.91;2075931;28;20103;-85
2023/02/06 02:15:46;;;;;;;10.35;1.88;;;;;;;6.97;100.00;100749.16;2084436;28;20045;-86
2023/02/06 02:17:23;;;;;;;13.60;2.80;;;;;;;6.97;100.00;100723.78;2087930;28;20060;-85
2023/02/06 02:19:05;;;;;;;11.60;2.35;;;;;;;7.00;100.00;100723.91;2096064;28;20425;-85
2023/02/06 02:20:51;;;;;;;9.90;2.53;;;;;;;7.03;100.00;100720.47;2093442;28;20044;-86
2023/02/06 02:22:29;;;;;;;8.93;1.88;;;;;;;7.03;100.00;100723.97;2088763;28;20128;-88
2023/02/06 02:23:58;;;;;;;11.25;2.35;;;;;;;7.02;100.00;100743.19;2096497;28;20051;-87
2023/02/06 02:25:57;;;;;;;16.38;2.47;;;;;;;7.04;100.00;100752.00;2095930;28;20052;-85
2023/02/06 02:27:45;;;;;;;11.45;1.80;;;;;;;7.01;100.00;100765.06;2089139;28;20041;-84
2023/02/06 02:29:41;;;;;;;6.40;1.45;;;;;;;7.00;100.00;100770.25;2080716;28;20068;-83
2023/02/06 02:31:41;;;;;;;8.68;1.70;;;;;;;6.97;100.00;100764.88;2087261;28;20049;-87
2023/02/06 02:33:37;;;;;;;4.95;1.77;;;;;;;6.93;100.00;100771.78;2072010;28;20045;-86
2023/02/06 02:35:23;;;;;;;9.00;2.30;;;;;;;6.93;100.00;100778.78;2088362;28;20047;-86
2023/02/06 02:36:52;;;;;;;9.85;1.95;;;;;;;6.93;100.00;100763.94;2088773;28;20053;-86
2023/02/06 02:38:31;;;;;;;5.93;2.67;;;;;;;6.92;100.00;100780.50;2078909;28;20054;-81
2023/02/06 02:39:59;;;;;;;10.80;3.33;;;;;;;6.90;100.00;100769.06;2089976;28;20399;-81
2023/02/06 02:41:32;;;;;;;9.38;2.85;;;;;;;6.85;100.00;100777.66;2095396;28;20075;-82
2023/02/06 02:43:05;;;;;;;13.32;2.97;;;;;;;6.79;100.00;100779.25;2096847;28;20044;-83
2023/02/06 02:44:35;;;;;;;8.10;2.35;;;;;;;6.77;100.00;100786.16;2087659;28;20049;-78
2023/02/06 02:46:01;;;;;;;7.47;1.95;;;;;;;6.65;100.00;100763.91;2086958;28;20052;-79
2023/02/06 02:47:30;;;;;;;7.18;2.10;;;;;;;6.54;100.00;100794.16;2085909;28;20068;-77
2023/02/06 02:48:57;;;;;;;13.95;2.22;;;;;;;6.47;100.00;100773.84;2086614;28;20056;-78
2023/02/06 02:50:20;;;;;;;9.48;2.05;;;;;;;6.45;100.00;100784.25;2080041;28;20048;-79
2023/02/06 02:51:43;;;;;;;9.82;2.08;;;;;;;6.45;100.00;100784.25;2085941;28;20052;-78
2023/02/06 02:53:04;;;;;;;8.45;2.13;;;;;;;6.47;100.00;100786.94;2080145;28;20050;-78
2023/02/06 02:54:27;;;;;;;;;;;;;;;6.43;100.00;100779.84;2086669;28;20502;-79
2023/02/06 02:55:48;;;;;;;;;;;;;;;6.39;100.00;100790.19;2093055;28;19924;-79
2023/02/06 02:57:15;;;;;;;9.02;2.40;;;;;;;6.43;100.00;100796.44;2085401;28;19956;-78
2023/02/06 02:58:36;;;;;;;10.55;3.08;;;;;;;6.49;100.00;100794.03;2092427;28;20032;-78
2023/02/06 03:00:01;;;;;;;9.98;3.13;;;;;;;6.54;100.00;100795.06;2088124;28;20508;-78
2023/02/06 03:01:30;;;;;;;12.18;2.45;;;;;;;6.56;100.00;100797.75;2091421;28;20045;-78
2023/02/06 03:02:58;;;;;;;10.25;2.05;;;;;;;6.59;100.00;100798.72;2087102;28;20049;-78
2023/02/06 03:04:25;;;;;;;10.07;1.92;;;;;;;6.56;100.00;100798.63;2084784;28;20203;-77
2023/02/06 03:06:05;;;;;;;7.18;2.03;;;;;;;6.48;100.00;100779.13;2086061;28;20056;-77
2023/02/06 03:07:34;;;;;;;11.45;2.15;;;;;;;6.38;100.00;100819.88;2094857;28;20109;-77
2023/02/06 03:09:03;;;;;;;13.57;2.78;;;;;;;6.28;100.00;100815.19;2096786;28;20561;-77
2023/02/06 03:10:32;;;;;;;12.32;2.72;;;;;;;6.27;100.00;100809.88;2090721;28;20040;-78
2023/02/06 03:12:03;;;;;;;13.68;2.65;;;;;;;6.32;100.00;100814.44;2100838;28;20119;-77
2023/02/06 03:13:32;;;;;;;11.88;2.60;;;;;;;6.38;100.00;100809.38;2103545;28;20048;-78
2023/02/06 03:14:58;;;;;;;10.80;2.10;;;;;;;6.44;100.00;100800.81;2094940;28;20097;-79
2023/02/06 03:16:25;;;;;;;14.98;2.78;;;;;;;6.48;100.00;100800.09;2094501;28;20044;-78
2023/02/06 03:17:53;;;;;;;15.23;5.63;;;;;;;6.50;100.00;100808.88;2100437;28;20044;-79
2023/02/06 03:19:18;;;;;;;11.77;3.95;;;;;;;6.53;100.00;100810.72;2095224;28;20048;-80
2023/02/06 03:20:44;;;;;;;10.10;2.70;;;;;;;6.53;100.00;100813.34;2088549;28;20060;-80
2023/02/06 03:22:08;;;;;;;19.73;5.68;;;;;;;6.56;100.00;100813.47;2086102;28;20091;-79
2023/02/06 03:23:36;;;;;;;13.23;3.40;;;;;;;6.58;100.00;100828.41;2085969;28;20075;-79
2023/02/06 03:24:58;;;;;;;12.35;3.05;;;;;;;6.58;100.00;100814.38;2093086;28;20047;-79
2023/02/06 03:26:23;;;;;;;9.98;2.70;;;;;;;6.54;100.00;100828.25;2096782;28;20049;-80
2023/02/06 03:27:46;;;;;;;8.82;2.00;;;;;;;6.53;100.00;100829.09;2086394;28;20504;-81
2023/02/06 03:29:12;;;;;;;13.43;2.03;;;;;;;6.53;100.00;100824.75;2099942;28;20044;-81
2023/02/06 03:30:35;;;;;;;8.60;2.85;;;;;;;6.54;100.00;100851.84;2101145;28;20095;-80
2023/02/06 03:32:02;;;;;;;8.35;2.35;;;;;;;6.54;100.00;100844.00;2102461;28;20051;-81
2023/02/06 03:33:29;;;;;;;7.13;3.60;;;;;;;6.59;100.00;100855.50;2103198;28;20086;-81
2023/02/06 03:34:57;;;;;;;7.90;4.15;;;;;;;6.65;100.00;100842.59;2094900;28;20062;-81
2023/02/06 03:36:19;;;;;;;6.93;2.00;;;;;;;6.66;100.00;100842.66;2086942;28;20041;-82
2023/02/06 03:37:43;;;;;;;6.68;1.65;;;;;;;6.68;100.00;100845.34;2093090;28;20102;-80
2023/02/06 03:39:04;;;;;;;6.07;2.97;;;;;;;6.69;100.00;100840.16;2100505;28;20043;-81
2023/02/06 03:40:28;;;;;;;7.88;2.83;;;;;;;6.71;100.00;100833.19;2088147;28;20041;-81
2023/02/06 03:41:52;;;;;;;9.18;3.75;;;;;;;6.70;100.00;100834.03;2091847;28;20452;-82
2023/02/06 03:43:18;;;;;;;5.13;2.03;;;;;;;6.68;100.00;100832.22;2094064;28;20524;-79
2023/02/06 03:44:44;;;;;;;7.50;2.58;;;;;;;6.67;100.00;100823.47;2086623;28;20457;-79
2023/02/06 03:46:07;;;;;;;11.50;3.00;;;;;;;6.64;100.00;100823.34;2100286;28;20105;-78
2023/02/06 03:47:30;;;;;;;10.75;3.35;;;;;;;6.66;100.00;100810.28;2096065;28;20055;-78
2023/02/06 03:48:58;;;;;;;9.50;2.53;;;;;;;6.63;100.00;100804.97;2085932;28;20088;-79
2023/02/06 03:50:21;;;;;;;11.00;2.15;;;;;;;6.58;100.00;100822.25;2085774;28;20076;-79
2023/02/06 03:51:48;;;;;;;10.65;2.47;;;;;;;6.57;100.00;100828.34;2102375;28;20103;-79
2023/02/06 03:53:13;;;;;;;12.98;2.85;;;;;;;6.58;100.00;100819.63;2096050;28;20049;-80
2023/02/06 03:54:39;;;;;;;13.50;3.70;;;;;;;6.59;100.00;100829.28;2094675;28;20048;-80
2023/02/06 03:56:10;;;;;;;12.27;4.53;;;;;;;6.65;100.00;100833.00;2086217;28;20041;-81
2023/02/06 03:57:35;;;;;;;17.15;4.68;;;;;;;6.70;100.00;100835.75;2093556;28;20057;-81
2023/02/06 03:58:56;;;;;;;22.88;4.60;;;;;;;6.73;100.00;100828.00;2094841;28;20068;-81
2023/02/06 04:00:19;;;;;;;13.60;4.05;;;;;;;6.76;100.00;100826.34;2095688;28;20138;-81
2023/02/06 04:01:45;;;;;;;13.18;3.65;;;;;;;6.81;100.00;100831.78;2102415;28;20058;-81
2023/02/06 04:03:10;;;;;;;15.20;4.43;;;;;;;6.83;100.00;100829.19;2102838;28;20106;-81
2023/02/06 04:04:36;;;;;;;17.05;7.25;;;;;;;6.83;100.00;100840.56;2111012;28;20051;-81
2023/02/06 04:05:59;;;;;;;18.45;6.60;;;;;;;6.82;100.00;100853.66;2104931;28;20433;-81
2023/02/06 04:07:25;;;;;;;14.43;5.32;;;;;;;6.81;100.00;100844.88;2101739;28;20047;-82
2023/02/06 04:08:49;;;;;;;14.35;3.47;;;;;;;6.80;100.00;100843.09;2094555;28;20053;-80
2023/02/06 04:10:11;;;;;;;17.05;3.47;;;;;;;6.78;100.00;100853.53;2094178;28;20064;-81
2023/02/06 04:11:33;;;;;;;10.60;3.10;;;;;;;6.77;100.00;100833.38;2105025;28;20051;-81
2023/02/06 04:12:55;;;;;;;17.27;4.40;;;;;;;6.80;100.00;100845.72;2088000;28;20040;-80
2023/02/06 04:14:18;;;;;;;12.45;3.90;;;;;;;6.79;100.00;100860.56;2093326;28;20063;-79
2023/02/06 04:15:39;;;;;;;10.43;2.33;;;;;;;6.77;100.00;100828.13;2101976;28;20071;-77
2023/02/06 04:17:02;;;;;;;3.70;1.45;;;;;;;6.70;100.00;100841.00;2089416;28;20140;-77
2023/02/06 04:18:23;;;;;;;6.90;1.48;;;;;;;6.58;100.00;100838.88;2083973;28;20037;-77
2023/02/06 04:19:46;;;;;;;11.68;2.58;;;;;;;6.53;100.00;100843.09;2091525;28;20056;-77
2023/02/06 04:21:08;;;;;;;6.85;1.65;;;;;;;6.52;100.00;100856.16;2093746;28;20041;-78
2023/02/06 04:22:30;;;;;;;9.20;1.95;;;;;;;6.48;100.00;100852.53;2103463;28;20048;-78
2023/02/06 04:23:54;;;;;;;8.77;2.10;;;;;;;6.50;100.00;100858.72;2097844;28;20098;-78
2023/02/06 04:25:16;;;;;;;11.80;3.17;;;;;;;6.51;100.00;100868.38;2102358;28;20048;-76
2023/02/06 04:26:38;;;;;;;10.68;3.35;;;;;;;6.29;100.00;100850.16;2097784;28;20066;-77
2023/02/06 04:28:00;;;;;;;10.80;3.78;;;;;;;6.12;100.00;100862.66;2086116;28;20068;-78
2023/02/06 04:29:21;;;;;;;8.57;3.45;;;;;;;6.10;100.00;100877.47;2084298;28;20063;-78
2023/02/06 04:30:44;;;;;;;7.45;2.42;;;;;;;5.94;100.00;100851.53;2092000;28;20532;-77
2023/02/06 04:32:05;;;;;;;7.00;2.75;;;;;;;5.41;100.00;100863.53;2093996;28;20667;-77
2023/02/06 04:33:28;;;;;;;17.00;3.80;;;;;;;4.64;100.00;100837.84;2094248;28;20498;-77
2023/02/06 04:34:50;;;;;;;9.60;4.10;;;;;;;4.10;100.00;100851.22;2102568;28;20487;-77
2023/02/06 04:36:12;;;;;;;15.20;5.68;;;;;;;3.91;100.00;100840.00;2081086;28;20045;-79
2023/02/06 04:37:33;;;;;;;12.32;4.35;;;;;;;3.99;100.00;100859.50;2099620;28;20044;-79
2023/02/06 04:38:57;;;;;;;20.08;6.55;;;;;;;4.17;100.00;100855.88;2105587;28;20139;-80
2023/02/06 04:40:19;;;;;;;14.75;5.60;;;;;;;4.34;100.00;100858.38;2097892;28;20044;-81
2023/02/06 04:41:42;;;;;;;23.77;7.07;;;;;;;4.57;100.00;100854.09;2078713;28;20041;-81
2023/02/06 04:43:03;;;;;;;15.80;4.55;;;;;;;4.80;100.00;100857.63;2100525;28;20071;-81
2023/02/06 04:44:28;;;;;;;15.00;6.18;;;;;;;5.00;100.00;100872.38;2097040;28;20072;-79
2023/02/06 04:45:51;;;;;;;19.85;4.78;;;;;;;5.21;100.00;100877.56;2096042;28;20032;-80
2023/02/06 04:47:12;;;;;;;17.48;4.13;;;;;;;5.40;100.00;100860.84;2103307;28;20039;-78
2023/02/06 04:48:35;;;;;;;21.23;4.10;;;;;;;5.56;100.00;100879.81;2094032;28;20140;-79
2023/02/06 04:49:57;;;;;;;14.05;4.50;;;;;;;5.73;100.00;100885.66;2092009;28;20056;-79
2023/02/06 04:51:18;;;;;;;16.95;4.78;;;;;;;5.87;100.00;100862.59;2094197;28;20052;-80
2023/02/06 04:52:41;;;;;;;21.73;5.47;;;;;;;5.97;100.00;100878.72;2094928;28;20056;-79
2023/02/06 04:54:04;;;;;;;20.85;4.40;;;;;;;6.08;100.00;100878.22;2094437;28;20029;-80
2023/02/06 04:55:26;;;;;;;12.52;4.03;;;;;;;6.13;100.00;100893.28;2089347;28;20074;-80
2023/02/06 04:56:48;;;;;;;16.10;3.55;;;;;;;6.17;100.00;100892.53;2091437;28;20045;-82
2023/02/06 04:58:11;;;;;;;11.73;2.78;;;;;;;6.14;100.00;100881.94;2097797;28;20429;-82
2023/02/06 04:59:32;;;;;;;11.82;4.15;;;;;;;6.14;100.00;100889.81;2095640;28;20511;-80
2023/02/06 05:00:54;;;;;;;13.10;3.50;;;;;;;6.14;100.00;100905.53;2094107;28;20404;-83
2023/02/06 05:02:16;;;;;;;12.00;4.20;;;;;;;6.19;100.00;100901.34;2102035;28;20036;-81
2023/02/06 05:03:38;;;;;;;8.57;4.18;;;;;;;6.19;100.00;100903.97;2097419;28;20521;-83
2023/02/06 05:05:00;;;;;;;12.35;4.10;;;;;;;6.21;100.00;100897.06;2097047;28;20045;-83
2023/02/06 05:06:23;;;;;;;8.77;3.10;;;;;;;6.20;100.00;100897.88;2090028;28;20041;-82
2023/02/06 05:07:44;;;;;;;9.55;3.40;;;;;;;6.22;100.00;100911.94;2100446;28;20060;-82
2023/02/06 05:09:08;;;;;;;11.98;3.05;;;;;;;6.23;100.00;100900.63;2097369;28;20064;-81
2023/02/06 05:10:31;;;;;;;10.02;2.47;;;;;;;6.24;100.00;100910.25;2094680;28;20059;-81
2023/02/06 05:11:52;;;;;;;14.43;2.92;;;;;;;6.26;100.00;100905.97;2102532;28;20052;-80
2023/02/06 05:13:14;;;;;;;12.95;3.63;;;;;;;6.31;100.00;100908.75;2096724;28;20044;-81
2023/02/06 05:14:36;;;;;;;9.63;2.83;;;;;;;6.36;100.00;100913.34;2087067;28;20099;-84
2023/02/06 05:16:04;;;;;;;12.95;3.00;;;;;;;6.42;100.00;100914.38;2086766;28;20080;-82
2023/02/06 05:17:25;;;;;;;11.05;2.60;;;;;;;6.45;100.00;100907.50;2099618;28;20049;-82
2023/02/06 05:18:47;;;;;;;9.45;2.75;;;;;;;6.46;100.00;100921.50;2088336;28;20033;-82
2023/02/06 05:20:11;;;;;;;11.30;2.45;;;;;;;6.44;100.00;100929.31;2096210;28;20052;-82
2023/02/06 05:21:32;;;;;;;10.98;3.63;;;;;;;6.42;100.00;100928.38;2100067;28;20557;-82
2023/02/06 05:22:54;;;;;;;14.65;4.03;;;;;;;6.42;100.00;100907.41;2095403;28;20055;-84
2023/02/06 05:24:18;;;;;;;9.38;3.15;;;;;;;6.45;100.00;100917.97;2094559;28;20554;-82
2023/02/06 05:25:40;;;;;;;11.98;2.67;;;;;;;6.46;100.00;100916.25;2094975;28;20049;-81
2023/02/06 05:27:03;;;;;;;12.45;2.85;;;;;;;6.48;100.00;100927.69;2094956;28;20060;-82
2023/02/06 05:28:24;;;;;;;16.75;4.18;;;;;;;6.50;100.00;100923.41;2083524;28;20045;-81
2023/02/06 05:29:46;;;;;;;11.35;3.83;;;;;;;6.52;100.00;100930.47;2075734;28;20041;-82
2023/02/06 05:31:08;;;;;;;9.32;3.00;;;;;;;6.55;100.00;100929.69;2092788;28;20049;-82
2023/02/06 05:32:30;;;;;;;11.00;2.92;;;;;;;6.57;100.00;100917.50;2080917;28;20165;-83
2023/02/06 05:33:53;;;;;;;8.43;2.20;;;;;;;6.60;100.00;100920.25;2092213;28;20048;-83
2023/02/06 05:35:16;;;;;;;7.20;2.55;;;;;;;6.61;100.00;100915.06;2097797;28;20044;-83
2023/02/06 05:36:37;;;;;;;6.70;2.17;;;;;;;6.62;100.00;100903.72;2089578;28;20048;-83
2023/02/06 05:38:00;;;;;;;8.23;2.83;;;;;;;6.62;100.00;100913.31;2086733;28;20469;-82
2023/02/06 05:39:24;;;;;;;11.02;2.75;;;;;;;6.64;100.00;100923.00;2086760;28;20048;-82
2023/02/06 05:40:51;;;;;;;10.70;2.75;;;;;;;6.67;100.00;100909.13;2093191;28;20040;-84
2023/02/06 05:42:12;;;;;;;10.98;2.83;;;;;;;6.69;100.00;100905.72;2101286;28;20040;-82
2023/02/06 05:43:35;;;;;;;12.55;2.42;;;;;;;6.71;100.00;100925.00;2111541;28;20138;-84
2023/02/06 05:44:56;;;;;;;9.73;3.42;;;;;;;6.74;100.00;100932.09;2105899;28;20043;-85
2023/02/06 05:46:18;;;;;;;15.77;4.70;;;;;;;6.77;100.00;100933.06;2107836;28;20160;-84
2023/02/06 05:47:39;;;;;;;18.25;5.40;;;;;;;6.81;100.00;100936.72;2097525;28;20060;-84
2023/02/06 05:49:02;;;;;;;26.67;12.05;;;;;;;6.85;100.00;100924.56;2103133;28;20071;-85
2023/02/06 05:50:24;;;;;;;16.05;9.15;;;;;;;6.87;100.00;100942.16;2097693;28;20048;-84
2023/02/06 05:51:48;;;;;;;8.50;3.17;;;;;;;6.86;100.00;100931.59;2095207;28;20131;-84
2023/02/06 05:53:09;;;;;;;7.97;3.58;;;;;;;6.84;100.00;100935.91;2094439;28;20448;-83
2023/02/06 05:54:33;;;;;;;11.38;5.28;;;;;;;6.82;100.00;100948.09;2089611;28;20106;-83
2023/02/06 05:55:55;;;;;;;13.32;6.78;;;;;;;6.79;100.00;100948.88;2092688;28;20157;-83
2023/02/06 05:57:17;;;;;;;10.70;4.45;;;;;;;6.80;100.00;100955.91;2102762;28;20557;-84
2023/02/06 05:58:39;;;;;;;9.30;6.28;;;;;;;6.80;100.00;100948.03;2106131;28;20109;-84
2023/02/06 06:00:01;;;;;;;9.00;2.85;;;;;;;6.82;100.00;100950.72;2102670;28;20423;-84
2023/02/06 06:01:33;;;;;;;8.88;4.13;;;;;;;6.80;100.00;100942.78;2104483;28;20048;-83
2023/02/06 06:02:55;;;;;;;11.48;4.68;;;;;;;6.79;100.00;100941.91;2099286;28;20051;-84
2023/02/06 06:04:18;;;;;;;8.85;4.82;;;;;;;6.81;100.00;100947.19;2102981;28;20129;-83
2023/02/06 06:05:40;;;;;;;9.77;4.85;;;;;;;6.82;100.00;100951.59;2103320;28;20517;-84
2023/02/06 06:07:02;;;;;;;14.85;4.57;;;;;;;6.83;100.00;100956.00;2094993;28;20099;-84
2023/02/06 06:08:25;;;;;;;15.68;8.90;;;;;;;6.83;100.00;100956.00;2089708;28;20041;-84
2023/02/06 06:09:49;;;;;;;17.88;10.60;;;;;;;6.85;100.00;100970.06;2091543;28;20048;-80
2023/02/06 06:11:10;;;;;;;18.00;9.65;;;;;;;6.76;100.00;100954.88;2097297;28;20071;-79
2023/02/06 06:12:32;;;;;;;17.33;6.97;;;;;;;6.62;100.00;100945.69;2102802;28;20084;-79
2023/02/06 06:13:53;;;;;;;11.48;5.07;;;;;;;6.48;100.00;100925.97;2094084;28;20052;-79
2023/02/06 06:15:16;;;;;;;12.45;5.60;;;;;;;6.37;100.00;100937.78;2096271;28;20732;-78
2023/02/06 06:16:39;;;;;;;22.00;8.15;;;;;;;6.30;100.00;100935.81;2102980;28;20515;-80
2023/02/06 06:18:00;;;;;;;17.70;5.20;;;;;;;6.29;100.00;100945.41;2102609;28;20092;-78
2023/02/06 06:19:22;;;;;;;21.73;13.50;;;;;;;6.29;100.00;100948.03;2111247;28;20047;-78
2023/02/06 06:20:45;;;;;;;17.50;9.27;;;;;;;6.30;100.00;100954.16;2096976;28;20045;-79
2023/02/06 06:22:07;;;;;;;11.05;6.15;;;;;;;6.28;100.00;100938.38;2108404;28;20557;-81
2023/02/06 06:23:29;;;;;;;16.33;6.18;;;;;;;6.26;100.00;100966.25;2105665;28;20058;-82
2023/02/06 06:24:53;;;;;;;13.30;6.45;;;;;;;6.29;100.00;100960.25;2100265;28;20047;-83
2023/02/06 06:26:16;;;;;;;15.18;7.90;;;;;;;6.28;100.00;100982.94;2097533;28;20059;-79
2023/02/06 06:27:38;;;;;;;17.60;9.43;;;;;;;6.28;100.00;100987.28;2108499;28;20035;-78
2023/02/06 06:29:00;;;;;;;17.23;10.20;;;;;;;6.24;100.00;100988.00;2087872;28;20055;-79
2023/02/06 06:30:23;;;;;;;14.73;7.32;;;;;;;6.21;100.00;100980.03;2082482;28;20052;-79